RYR4PT EDDB-LEPA
Flight info
| Callsign | RYR4PT |
|---|---|
| Flight time | 2h 41m |
| Altitude | 34000 |
| Route | LUROS4B/06L LUROS Y211 BEBKU Z36 PIKIB/N0466F360 Z36 MAREM DCT RUDAP DCT EBEDA DCT BADVI DCT BERAS DCT OLPIX/N0463F350 DCT EKPEB DCT PIDAD DCT TALEP DCT RARQU DCT BALEN/N0465F290 UT250 RIXOT RIXOT2M |
| Aircraft | B738/M-SDE2E3FGHIRWXY/LB1 |
Departure
| Time | 2026-05-07 16:42 |
|---|---|
| Airport | Berlin Brandenburg Airport (EDDB) |
Arrival
| Time | 2026-05-07 19:24 |
|---|---|
| Airport | Palma de Mallorca Airport (LEPA) |
| Time | Latitude | Longitude | Altitude | Speed | Heading |
|---|---|---|---|---|---|
| 2026-05-07 16:11 | 52.36780 | 13.50677 | 154 ft | 0 kts | 159° |
| 2026-05-07 16:32 | 52.36794 | 13.50668 | 154 ft | 4 kts | 162° |
| 2026-05-07 16:32 | 52.36820 | 13.50658 | 154 ft | 4 kts | 176° |
| 2026-05-07 16:32 | 52.36846 | 13.50663 | 155 ft | 4 kts | 210° |
| 2026-05-07 16:32 | 52.36857 | 13.50680 | 154 ft | 0 kts | 249° |
| 2026-05-07 16:37 | 52.36857 | 13.50679 | 154 ft | 0 kts | 249° |
| 2026-05-07 16:37 | 52.36843 | 13.50624 | 154 ft | 11 kts | 248° |
| 2026-05-07 16:37 | 52.36810 | 13.50482 | 155 ft | 14 kts | 249° |
| 2026-05-07 16:37 | 52.36772 | 13.50322 | 153 ft | 17 kts | 249° |
| 2026-05-07 16:38 | 52.36728 | 13.50126 | 150 ft | 19 kts | 262° |
| 2026-05-07 16:38 | 52.36778 | 13.49946 | 146 ft | 19 kts | 252° |
| 2026-05-07 16:38 | 52.36733 | 13.49751 | 147 ft | 18 kts | 250° |
| 2026-05-07 16:38 | 52.36687 | 13.49559 | 147 ft | 19 kts | 249° |
| 2026-05-07 16:39 | 52.36637 | 13.49352 | 147 ft | 19 kts | 249° |
| 2026-05-07 16:39 | 52.36590 | 13.49150 | 147 ft | 19 kts | 249° |
| 2026-05-07 16:39 | 52.36542 | 13.48951 | 147 ft | 20 kts | 249° |
| 2026-05-07 16:39 | 52.36492 | 13.48736 | 147 ft | 20 kts | 248° |
| 2026-05-07 16:40 | 52.36441 | 13.48526 | 147 ft | 20 kts | 248° |
| 2026-05-07 16:40 | 52.36403 | 13.48320 | 146 ft | 19 kts | 278° |
| 2026-05-07 16:40 | 52.36511 | 13.48216 | 148 ft | 18 kts | 339° |
| 2026-05-07 16:40 | 52.36629 | 13.48150 | 150 ft | 18 kts | 354° |
| 2026-05-07 16:41 | 52.36714 | 13.48261 | 153 ft | 17 kts | 70° |
| 2026-05-07 16:41 | 52.36762 | 13.48471 | 154 ft | 26 kts | 68° |
| 2026-05-07 16:41 | 52.36900 | 13.49055 | 155 ft | 94 kts | 69° |
| 2026-05-07 16:41 | 52.37099 | 13.49892 | 158 ft | 142 kts | 69° |
| 2026-05-07 16:42 | 52.37510 | 13.51629 | 618 ft | 173 kts | 71° |
| 2026-05-07 16:42 | 52.37940 | 13.53522 | 1766 ft | 183 kts | 68° |
| 2026-05-07 16:42 | 52.38378 | 13.55452 | 2769 ft | 180 kts | 69° |
| 2026-05-07 16:42 | 52.38820 | 13.57417 | 3448 ft | 188 kts | 68° |
| 2026-05-07 16:43 | 52.39297 | 13.59422 | 4139 ft | 193 kts | 67° |
| 2026-05-07 16:43 | 52.39805 | 13.61538 | 4616 ft | 206 kts | 66° |
| 2026-05-07 16:43 | 52.40305 | 13.63571 | 4979 ft | 215 kts | 66° |
| 2026-05-07 16:43 | 52.40787 | 13.65429 | 5475 ft | 214 kts | 65° |
| 2026-05-07 16:44 | 52.41383 | 13.67775 | 5660 ft | 237 kts | 66° |
| 2026-05-07 16:44 | 52.42018 | 13.70418 | 5580 ft | 255 kts | 68° |
| 2026-05-07 16:44 | 52.42661 | 13.73241 | 5788 ft | 272 kts | 69° |
| 2026-05-07 16:44 | 52.43272 | 13.76294 | 6240 ft | 289 kts | 78° |
| 2026-05-07 16:45 | 52.43161 | 13.79603 | 6871 ft | 301 kts | 109° |
| 2026-05-07 16:45 | 52.42053 | 13.82562 | 7324 ft | 313 kts | 137° |
| 2026-05-07 16:45 | 52.40228 | 13.84486 | 7993 ft | 314 kts | 162° |
| 2026-05-07 16:45 | 52.38085 | 13.84914 | 8737 ft | 312 kts | 187° |
| 2026-05-07 16:46 | 52.35939 | 13.84556 | 9656 ft | 309 kts | 188° |
| 2026-05-07 16:46 | 52.33811 | 13.84149 | 10495 ft | 310 kts | 189° |
| 2026-05-07 16:46 | 52.31606 | 13.83729 | 10775 ft | 331 kts | 188° |
| 2026-05-07 16:46 | 52.29236 | 13.83311 | 10940 ft | 353 kts | 188° |
| 2026-05-07 16:47 | 52.26720 | 13.82901 | 11096 ft | 373 kts | 187° |
| 2026-05-07 16:47 | 52.24084 | 13.82503 | 11339 ft | 387 kts | 187° |
| 2026-05-07 16:47 | 52.21388 | 13.82120 | 11881 ft | 391 kts | 187° |
| 2026-05-07 16:47 | 52.18661 | 13.81747 | 12536 ft | 393 kts | 186° |
| 2026-05-07 16:48 | 52.15928 | 13.81381 | 13183 ft | 396 kts | 186° |
| 2026-05-07 16:48 | 52.13172 | 13.81016 | 13817 ft | 399 kts | 186° |
| 2026-05-07 16:48 | 52.10397 | 13.80651 | 14391 ft | 402 kts | 186° |
| 2026-05-07 16:48 | 52.07597 | 13.80282 | 14976 ft | 405 kts | 186° |
| 2026-05-07 16:49 | 52.04791 | 13.79914 | 15759 ft | 405 kts | 186° |
| 2026-05-07 16:49 | 52.01978 | 13.79545 | 16444 ft | 406 kts | 186° |
| 2026-05-07 16:49 | 51.99149 | 13.79174 | 17037 ft | 410 kts | 186° |
| 2026-05-07 16:49 | 51.96299 | 13.78799 | 17596 ft | 414 kts | 186° |
| 2026-05-07 16:50 | 51.93417 | 13.78421 | 18185 ft | 416 kts | 186° |
| 2026-05-07 16:50 | 51.90517 | 13.78042 | 18710 ft | 419 kts | 186° |
| 2026-05-07 16:50 | 51.87603 | 13.77661 | 19208 ft | 421 kts | 186° |
| 2026-05-07 16:50 | 51.84670 | 13.77279 | 19724 ft | 423 kts | 186° |
| 2026-05-07 16:51 | 51.81725 | 13.76895 | 20213 ft | 426 kts | 186° |
| 2026-05-07 16:51 | 51.78768 | 13.76510 | 20697 ft | 428 kts | 186° |
| 2026-05-07 16:51 | 51.75789 | 13.76123 | 21166 ft | 430 kts | 186° |
| 2026-05-07 16:51 | 51.72827 | 13.75738 | 21616 ft | 433 kts | 186° |
| 2026-05-07 16:52 | 51.69787 | 13.75344 | 22065 ft | 435 kts | 186° |
| 2026-05-07 16:52 | 51.66806 | 13.74958 | 22512 ft | 437 kts | 186° |
| 2026-05-07 16:52 | 51.63727 | 13.74560 | 22932 ft | 439 kts | 186° |
| 2026-05-07 16:52 | 51.60715 | 13.74171 | 23340 ft | 441 kts | 186° |
| 2026-05-07 16:53 | 51.57607 | 13.73770 | 23751 ft | 443 kts | 186° |
| 2026-05-07 16:53 | 51.54529 | 13.73374 | 24078 ft | 445 kts | 186° |
| 2026-05-07 16:53 | 51.51431 | 13.72975 | 24409 ft | 447 kts | 186° |
| 2026-05-07 16:53 | 51.48367 | 13.72581 | 24734 ft | 449 kts | 186° |
| 2026-05-07 16:54 | 51.45249 | 13.72181 | 25050 ft | 450 kts | 186° |
| 2026-05-07 16:54 | 51.42119 | 13.71781 | 25353 ft | 452 kts | 186° |
| 2026-05-07 16:54 | 51.38979 | 13.71379 | 25647 ft | 454 kts | 186° |
| 2026-05-07 16:54 | 51.35828 | 13.70976 | 25912 ft | 455 kts | 186° |
| 2026-05-07 16:55 | 51.32666 | 13.70573 | 26162 ft | 456 kts | 186° |
| 2026-05-07 16:55 | 51.29509 | 13.70171 | 26449 ft | 456 kts | 186° |
| 2026-05-07 16:55 | 51.26343 | 13.69769 | 26801 ft | 454 kts | 186° |
| 2026-05-07 16:55 | 51.23199 | 13.69370 | 27179 ft | 452 kts | 186° |
| 2026-05-07 16:56 | 51.20065 | 13.68973 | 27566 ft | 450 kts | 187° |
| 2026-05-07 16:56 | 51.16947 | 13.68578 | 27937 ft | 449 kts | 187° |
| 2026-05-07 16:56 | 51.10738 | 13.67793 | 28673 ft | 446 kts | 187° |
| 2026-05-07 16:57 | 51.07642 | 13.67402 | 29079 ft | 444 kts | 187° |
| 2026-05-07 16:57 | 51.04571 | 13.67016 | 29501 ft | 442 kts | 187° |
| 2026-05-07 16:57 | 51.01506 | 13.66630 | 29867 ft | 441 kts | 187° |
| 2026-05-07 16:57 | 50.98444 | 13.66245 | 30208 ft | 440 kts | 187° |
| 2026-05-07 16:58 | 50.95397 | 13.65862 | 30522 ft | 439 kts | 187° |
| 2026-05-07 16:58 | 50.92362 | 13.65481 | 30853 ft | 437 kts | 187° |
| 2026-05-07 16:58 | 50.89333 | 13.65102 | 31151 ft | 436 kts | 188° |
| 2026-05-07 16:58 | 50.86312 | 13.64724 | 31420 ft | 436 kts | 188° |
| 2026-05-07 16:59 | 50.83292 | 13.64347 | 31714 ft | 434 kts | 188° |
| 2026-05-07 16:59 | 50.80288 | 13.63972 | 32022 ft | 433 kts | 188° |
| 2026-05-07 16:59 | 50.77291 | 13.63598 | 32305 ft | 432 kts | 188° |
| 2026-05-07 16:59 | 50.74291 | 13.63225 | 32562 ft | 432 kts | 188° |
| 2026-05-07 17:00 | 50.71297 | 13.62832 | 32838 ft | 430 kts | 190° |
| 2026-05-07 17:00 | 50.68342 | 13.62159 | 33137 ft | 428 kts | 192° |
| 2026-05-07 17:00 | 50.65413 | 13.61415 | 33407 ft | 427 kts | 193° |
| 2026-05-07 17:00 | 50.62483 | 13.60650 | 33660 ft | 427 kts | 193° |
| 2026-05-07 17:01 | 50.59578 | 13.59891 | 33936 ft | 426 kts | 193° |
| 2026-05-07 17:01 | 50.56670 | 13.59137 | 33992 ft | 428 kts | 193° |
| 2026-05-07 17:01 | 50.50991 | 13.56493 | 34016 ft | 420 kts | 204° |
| 2026-05-07 17:02 | 50.45583 | 13.53209 | 34000 ft | 418 kts | 204° |
| 2026-05-07 17:02 | 50.40140 | 13.49942 | 34015 ft | 420 kts | 204° |
| 2026-05-07 17:03 | 50.34682 | 13.46706 | 34010 ft | 419 kts | 204° |
| 2026-05-07 17:03 | 50.29229 | 13.43492 | 34007 ft | 418 kts | 204° |
| 2026-05-07 17:04 | 50.23794 | 13.40302 | 34003 ft | 416 kts | 204° |
| 2026-05-07 17:04 | 50.18379 | 13.37128 | 33996 ft | 415 kts | 204° |
| 2026-05-07 17:05 | 50.12973 | 13.33967 | 34000 ft | 415 kts | 204° |
| 2026-05-07 17:05 | 50.07565 | 13.30811 | 34007 ft | 415 kts | 204° |
| 2026-05-07 17:06 | 50.02147 | 13.27659 | 34009 ft | 416 kts | 204° |
| 2026-05-07 17:06 | 49.96708 | 13.24500 | 34005 ft | 418 kts | 204° |
| 2026-05-07 17:07 | 49.91257 | 13.21344 | 34018 ft | 418 kts | 204° |
| 2026-05-07 17:07 | 49.85797 | 13.18190 | 34014 ft | 419 kts | 204° |
| 2026-05-07 17:08 | 49.80366 | 13.15060 | 34020 ft | 420 kts | 204° |
| 2026-05-07 17:08 | 49.74896 | 13.11916 | 34015 ft | 419 kts | 204° |
| 2026-05-07 17:09 | 49.69391 | 13.08759 | 34019 ft | 419 kts | 203° |
| 2026-05-07 17:09 | 49.63916 | 13.05627 | 34018 ft | 420 kts | 203° |
| 2026-05-07 17:10 | 49.58475 | 13.02521 | 34024 ft | 420 kts | 203° |
| 2026-05-07 17:10 | 49.52991 | 12.99398 | 34018 ft | 421 kts | 203° |
| 2026-05-07 17:11 | 49.47494 | 12.96275 | 34012 ft | 421 kts | 203° |
| 2026-05-07 17:11 | 49.42000 | 12.93162 | 34022 ft | 421 kts | 203° |
| 2026-05-07 17:12 | 49.36500 | 12.90053 | 34028 ft | 421 kts | 203° |
| 2026-05-07 17:12 | 49.30992 | 12.86946 | 34032 ft | 422 kts | 203° |
| 2026-05-07 17:13 | 49.25483 | 12.83847 | 34031 ft | 422 kts | 203° |
| 2026-05-07 17:13 | 49.19971 | 12.80754 | 34039 ft | 421 kts | 203° |
| 2026-05-07 17:14 | 49.14468 | 12.77672 | 34030 ft | 421 kts | 203° |
| 2026-05-07 17:14 | 49.08964 | 12.74598 | 34036 ft | 421 kts | 203° |
| 2026-05-07 17:15 | 49.03465 | 12.71533 | 34032 ft | 421 kts | 203° |
| 2026-05-07 17:15 | 48.97969 | 12.68478 | 34035 ft | 420 kts | 203° |
| 2026-05-07 17:16 | 48.92481 | 12.65433 | 34037 ft | 420 kts | 203° |
| 2026-05-07 17:16 | 48.86999 | 12.62400 | 34035 ft | 419 kts | 203° |
| 2026-05-07 17:17 | 48.81527 | 12.59378 | 34038 ft | 418 kts | 203° |
| 2026-05-07 17:17 | 48.76060 | 12.56367 | 34032 ft | 418 kts | 203° |
| 2026-05-07 17:18 | 48.70585 | 12.53358 | 34037 ft | 418 kts | 203° |
| 2026-05-07 17:18 | 48.65110 | 12.50356 | 34027 ft | 418 kts | 203° |
| 2026-05-07 17:19 | 48.59632 | 12.47359 | 34027 ft | 419 kts | 203° |
| 2026-05-07 17:19 | 48.54157 | 12.44372 | 34029 ft | 419 kts | 203° |
| 2026-05-07 17:20 | 48.48671 | 12.41385 | 34021 ft | 419 kts | 203° |
| 2026-05-07 17:20 | 48.43182 | 12.38403 | 34026 ft | 419 kts | 203° |
| 2026-05-07 17:21 | 48.37696 | 12.35430 | 34022 ft | 419 kts | 203° |
| 2026-05-07 17:21 | 48.32203 | 12.32459 | 34024 ft | 420 kts | 203° |
| 2026-05-07 17:22 | 48.26699 | 12.29489 | 34027 ft | 421 kts | 203° |
| 2026-05-07 17:22 | 48.21191 | 12.26524 | 34022 ft | 421 kts | 203° |
| 2026-05-07 17:23 | 48.15670 | 12.23559 | 34025 ft | 422 kts | 203° |
| 2026-05-07 17:23 | 48.10134 | 12.20593 | 34028 ft | 423 kts | 203° |
| 2026-05-07 17:24 | 48.04582 | 12.17625 | 34022 ft | 424 kts | 203° |
| 2026-05-07 17:24 | 47.99016 | 12.14657 | 34024 ft | 425 kts | 203° |
| 2026-05-07 17:25 | 47.93439 | 12.11689 | 34022 ft | 426 kts | 203° |
| 2026-05-07 17:25 | 47.87883 | 12.08739 | 34025 ft | 426 kts | 203° |
| 2026-05-07 17:26 | 47.82295 | 12.05779 | 34025 ft | 427 kts | 203° |
| 2026-05-07 17:26 | 47.76704 | 12.02825 | 34019 ft | 425 kts | 203° |
| 2026-05-07 17:27 | 47.72072 | 12.00382 | 34028 ft | 426 kts | 203° |
| 2026-05-07 17:27 | 47.66481 | 11.97439 | 34023 ft | 427 kts | 203° |
| 2026-05-07 17:28 | 47.60879 | 11.94497 | 34035 ft | 427 kts | 203° |
| 2026-05-07 17:28 | 47.55279 | 11.91562 | 34018 ft | 426 kts | 203° |
| 2026-05-07 17:29 | 47.49685 | 11.88639 | 34020 ft | 427 kts | 203° |
| 2026-05-07 17:29 | 47.44073 | 11.85714 | 34013 ft | 427 kts | 203° |
| 2026-05-07 17:30 | 47.38473 | 11.82800 | 34021 ft | 427 kts | 203° |
| 2026-05-07 17:30 | 47.32876 | 11.79893 | 34005 ft | 427 kts | 203° |
| 2026-05-07 17:31 | 47.27268 | 11.76988 | 34007 ft | 428 kts | 203° |
| 2026-05-07 17:31 | 47.21652 | 11.74085 | 34023 ft | 428 kts | 203° |
| 2026-05-07 17:32 | 47.16033 | 11.71187 | 33998 ft | 429 kts | 203° |
| 2026-05-07 17:32 | 47.10403 | 11.68291 | 34018 ft | 428 kts | 203° |
| 2026-05-07 17:33 | 47.04782 | 11.65406 | 34012 ft | 427 kts | 203° |
| 2026-05-07 17:33 | 46.99175 | 11.62544 | 34005 ft | 427 kts | 203° |
| 2026-05-07 17:34 | 46.93564 | 11.59667 | 33984 ft | 427 kts | 204° |
| 2026-05-07 17:34 | 46.87954 | 11.56799 | 33984 ft | 428 kts | 204° |
| 2026-05-07 17:35 | 46.82324 | 11.53937 | 34008 ft | 428 kts | 204° |
| 2026-05-07 17:35 | 46.76704 | 11.51086 | 33961 ft | 427 kts | 204° |
| 2026-05-07 17:36 | 46.71136 | 11.48258 | 33940 ft | 426 kts | 205° |
| 2026-05-07 17:36 | 46.65944 | 11.44365 | 33969 ft | 418 kts | 217° |
| 2026-05-07 17:37 | 46.61108 | 11.39659 | 33955 ft | 419 kts | 217° |
| 2026-05-07 17:37 | 46.56259 | 11.34971 | 33946 ft | 418 kts | 217° |
| 2026-05-07 17:38 | 46.51401 | 11.30314 | 33944 ft | 419 kts | 217° |
| 2026-05-07 17:38 | 46.46529 | 11.25664 | 33932 ft | 418 kts | 217° |
| 2026-05-07 17:39 | 46.41667 | 11.21039 | 33956 ft | 419 kts | 218° |
| 2026-05-07 17:39 | 46.39208 | 11.18701 | 34077 ft | 425 kts | 218° |
| 2026-05-07 17:39 | 46.36719 | 11.16335 | 34075 ft | 431 kts | 218° |
| 2026-05-07 17:40 | 46.31669 | 11.11546 | 34077 ft | 435 kts | 218° |
| 2026-05-07 17:40 | 46.26612 | 11.06771 | 34070 ft | 434 kts | 218° |
| 2026-05-07 17:41 | 46.21568 | 11.02019 | 34061 ft | 432 kts | 219° |
| 2026-05-07 17:41 | 46.16541 | 10.97289 | 34056 ft | 431 kts | 218° |
| 2026-05-07 17:42 | 46.11534 | 10.92587 | 34046 ft | 428 kts | 218° |
| 2026-05-07 17:42 | 46.06542 | 10.87909 | 34039 ft | 429 kts | 218° |
| 2026-05-07 17:43 | 46.01528 | 10.83219 | 34032 ft | 430 kts | 218° |
| 2026-05-07 17:43 | 45.96524 | 10.78556 | 34033 ft | 427 kts | 218° |
| 2026-05-07 17:44 | 45.91536 | 10.73911 | 34017 ft | 428 kts | 218° |
| 2026-05-07 17:44 | 45.86528 | 10.69256 | 34018 ft | 429 kts | 218° |
| 2026-05-07 17:45 | 45.81517 | 10.64611 | 34007 ft | 428 kts | 218° |
| 2026-05-07 17:45 | 45.76520 | 10.59991 | 34002 ft | 427 kts | 218° |
| 2026-05-07 17:46 | 45.71531 | 10.55388 | 34001 ft | 426 kts | 218° |
| 2026-05-07 17:46 | 45.66582 | 10.50830 | 33981 ft | 427 kts | 218° |
| 2026-05-07 17:47 | 45.61580 | 10.46233 | 33965 ft | 427 kts | 218° |
| 2026-05-07 17:47 | 45.56579 | 10.41647 | 33962 ft | 427 kts | 218° |
| 2026-05-07 17:48 | 45.51583 | 10.37077 | 33964 ft | 427 kts | 218° |
| 2026-05-07 17:48 | 45.46582 | 10.32512 | 33969 ft | 427 kts | 218° |
| 2026-05-07 17:49 | 45.41584 | 10.27959 | 33939 ft | 427 kts | 218° |
| 2026-05-07 17:49 | 45.36588 | 10.23417 | 33935 ft | 426 kts | 218° |
| 2026-05-07 17:50 | 45.31591 | 10.18883 | 33938 ft | 426 kts | 218° |
| 2026-05-07 17:50 | 45.26596 | 10.14362 | 33941 ft | 426 kts | 218° |
| 2026-05-07 17:51 | 45.21605 | 10.09854 | 33946 ft | 426 kts | 218° |
| 2026-05-07 17:51 | 45.16606 | 10.05347 | 33948 ft | 425 kts | 217° |
| 2026-05-07 17:52 | 45.11614 | 10.00858 | 33944 ft | 425 kts | 217° |
| 2026-05-07 17:52 | 45.06628 | 9.96382 | 33946 ft | 424 kts | 217° |
| 2026-05-07 17:53 | 45.01648 | 9.91921 | 33939 ft | 423 kts | 217° |
| 2026-05-07 17:53 | 44.96676 | 9.87476 | 33945 ft | 423 kts | 217° |
| 2026-05-07 17:54 | 44.91697 | 9.83035 | 33937 ft | 423 kts | 217° |
| 2026-05-07 17:54 | 44.86725 | 9.78609 | 33940 ft | 422 kts | 217° |
| 2026-05-07 17:55 | 44.81768 | 9.74206 | 33935 ft | 422 kts | 217° |
| 2026-05-07 17:55 | 44.76798 | 9.69799 | 33954 ft | 421 kts | 217° |
| 2026-05-07 17:56 | 44.71835 | 9.65409 | 33939 ft | 421 kts | 217° |
| 2026-05-07 17:56 | 44.66882 | 9.61036 | 33963 ft | 421 kts | 217° |
| 2026-05-07 17:57 | 44.62764 | 9.57406 | 33978 ft | 420 kts | 217° |
| 2026-05-07 17:57 | 44.56991 | 9.52331 | 33991 ft | 419 kts | 217° |
| 2026-05-07 17:58 | 44.52052 | 9.47997 | 34013 ft | 419 kts | 217° |
| 2026-05-07 17:58 | 44.47103 | 9.43662 | 34003 ft | 419 kts | 217° |
| 2026-05-07 17:59 | 44.42156 | 9.39338 | 34006 ft | 419 kts | 217° |
| 2026-05-07 17:59 | 44.37211 | 9.35025 | 33999 ft | 420 kts | 217° |
| 2026-05-07 18:00 | 44.32253 | 9.30709 | 33996 ft | 419 kts | 217° |
| 2026-05-07 18:00 | 44.27311 | 9.26419 | 33986 ft | 417 kts | 217° |
| 2026-05-07 18:01 | 44.22420 | 9.22179 | 33988 ft | 416 kts | 217° |
| 2026-05-07 18:01 | 44.17508 | 9.17929 | 33987 ft | 415 kts | 217° |
| 2026-05-07 18:02 | 44.10159 | 9.11586 | 33993 ft | 414 kts | 217° |
| 2026-05-07 18:03 | 44.05266 | 9.07372 | 33989 ft | 414 kts | 217° |
| 2026-05-07 18:03 | 44.00374 | 9.03169 | 33988 ft | 413 kts | 217° |
| 2026-05-07 18:04 | 43.95488 | 8.98979 | 33988 ft | 412 kts | 218° |
| 2026-05-07 18:04 | 43.90608 | 8.94802 | 34003 ft | 412 kts | 218° |
| 2026-05-07 18:05 | 43.85731 | 8.90635 | 33983 ft | 412 kts | 218° |
| 2026-05-07 18:05 | 43.80854 | 8.86476 | 33979 ft | 412 kts | 218° |
| 2026-05-07 18:06 | 43.75976 | 8.82324 | 33990 ft | 411 kts | 218° |
| 2026-05-07 18:06 | 43.71100 | 8.78180 | 33979 ft | 411 kts | 217° |
| 2026-05-07 18:07 | 43.66193 | 8.74113 | 33981 ft | 415 kts | 212° |
| 2026-05-07 18:07 | 43.60610 | 8.71611 | 33987 ft | 430 kts | 199° |
| 2026-05-07 18:08 | 43.54535 | 8.71119 | 33987 ft | 443 kts | 187° |
| 2026-05-07 18:08 | 43.48434 | 8.70762 | 33979 ft | 428 kts | 201° |
| 2026-05-07 18:08 | 43.45673 | 8.69400 | 33994 ft | 417 kts | 212° |
| 2026-05-07 18:09 | 43.43192 | 8.67410 | 33986 ft | 410 kts | 221° |
| 2026-05-07 18:09 | 43.39020 | 8.62193 | 33981 ft | 405 kts | 227° |
| 2026-05-07 18:10 | 43.34896 | 8.56908 | 33974 ft | 405 kts | 227° |
| 2026-05-07 18:10 | 43.30759 | 8.51658 | 33977 ft | 405 kts | 226° |
| 2026-05-07 18:11 | 43.26618 | 8.46433 | 33981 ft | 404 kts | 226° |
| 2026-05-07 18:11 | 43.22481 | 8.41229 | 33978 ft | 403 kts | 226° |
| 2026-05-07 18:12 | 43.18355 | 8.36049 | 33978 ft | 402 kts | 226° |
| 2026-05-07 18:12 | 43.14927 | 8.31752 | 33979 ft | 401 kts | 225° |
| 2026-05-07 18:13 | 43.10809 | 8.26599 | 33982 ft | 401 kts | 225° |
| 2026-05-07 18:13 | 43.06693 | 8.21458 | 33983 ft | 400 kts | 225° |
| 2026-05-07 18:14 | 43.02584 | 8.16336 | 33984 ft | 400 kts | 225° |
| 2026-05-07 18:14 | 42.98477 | 8.11226 | 33984 ft | 399 kts | 225° |
| 2026-05-07 18:15 | 42.94374 | 8.06131 | 33980 ft | 398 kts | 225° |
| 2026-05-07 18:15 | 42.90275 | 8.01049 | 33981 ft | 398 kts | 225° |
| 2026-05-07 18:16 | 42.86175 | 7.95977 | 33979 ft | 398 kts | 225° |
| 2026-05-07 18:16 | 42.82073 | 7.90911 | 33981 ft | 398 kts | 225° |
| 2026-05-07 18:17 | 42.77969 | 7.85852 | 33983 ft | 398 kts | 224° |
| 2026-05-07 18:17 | 42.73861 | 7.80798 | 33980 ft | 398 kts | 224° |
| 2026-05-07 18:18 | 42.69755 | 7.75757 | 33977 ft | 398 kts | 224° |
| 2026-05-07 18:18 | 42.65643 | 7.70716 | 33979 ft | 398 kts | 224° |
| 2026-05-07 18:19 | 42.61530 | 7.65684 | 33976 ft | 398 kts | 224° |
| 2026-05-07 18:19 | 42.57416 | 7.60660 | 33978 ft | 398 kts | 224° |
| 2026-05-07 18:20 | 42.53295 | 7.55637 | 33976 ft | 398 kts | 224° |
| 2026-05-07 18:20 | 42.49171 | 7.50619 | 33979 ft | 398 kts | 223° |
| 2026-05-07 18:21 | 42.45047 | 7.45611 | 33975 ft | 398 kts | 223° |
| 2026-05-07 18:21 | 42.40923 | 7.40611 | 33972 ft | 398 kts | 223° |
| 2026-05-07 18:22 | 42.36796 | 7.35619 | 33977 ft | 398 kts | 223° |
| 2026-05-07 18:22 | 42.32670 | 7.30636 | 33974 ft | 398 kts | 223° |
| 2026-05-07 18:23 | 42.28540 | 7.25657 | 33974 ft | 398 kts | 223° |
| 2026-05-07 18:23 | 42.24409 | 7.20686 | 33974 ft | 398 kts | 223° |
| 2026-05-07 18:24 | 42.20275 | 7.15720 | 33973 ft | 398 kts | 222° |
| 2026-05-07 18:24 | 42.16165 | 7.10793 | 33972 ft | 398 kts | 222° |
| 2026-05-07 18:25 | 42.12025 | 7.05839 | 33976 ft | 398 kts | 222° |
| 2026-05-07 18:25 | 42.07877 | 7.00884 | 33976 ft | 399 kts | 222° |
| 2026-05-07 18:26 | 42.03727 | 6.95935 | 33974 ft | 399 kts | 222° |
| 2026-05-07 18:26 | 41.99570 | 6.90987 | 33971 ft | 399 kts | 222° |
| 2026-05-07 18:27 | 41.95409 | 6.86043 | 33971 ft | 399 kts | 221° |
| 2026-05-07 18:27 | 41.91247 | 6.81108 | 33968 ft | 399 kts | 221° |
| 2026-05-07 18:28 | 41.87083 | 6.76179 | 33966 ft | 399 kts | 221° |
| 2026-05-07 18:28 | 41.82912 | 6.71251 | 33972 ft | 400 kts | 221° |
| 2026-05-07 18:29 | 41.78734 | 6.66322 | 33966 ft | 401 kts | 221° |
| 2026-05-07 18:29 | 41.74543 | 6.61388 | 33968 ft | 402 kts | 221° |
| 2026-05-07 18:30 | 41.70336 | 6.56443 | 33968 ft | 403 kts | 221° |
| 2026-05-07 18:30 | 41.66470 | 6.51022 | 33967 ft | 403 kts | 227° |
| 2026-05-07 18:31 | 41.62757 | 6.45404 | 33966 ft | 403 kts | 227° |
| 2026-05-07 18:31 | 41.59032 | 6.39799 | 33970 ft | 403 kts | 226° |
| 2026-05-07 18:32 | 41.55285 | 6.34211 | 33963 ft | 404 kts | 226° |
| 2026-05-07 18:32 | 41.51515 | 6.28620 | 33967 ft | 406 kts | 226° |
| 2026-05-07 18:33 | 41.47733 | 6.23025 | 33963 ft | 406 kts | 226° |
| 2026-05-07 18:33 | 41.43971 | 6.17472 | 33967 ft | 406 kts | 226° |
| 2026-05-07 18:34 | 41.40178 | 6.11881 | 33964 ft | 407 kts | 226° |
| 2026-05-07 18:34 | 41.36374 | 6.06286 | 33964 ft | 408 kts | 226° |
| 2026-05-07 18:35 | 41.32560 | 6.00686 | 33964 ft | 409 kts | 226° |
| 2026-05-07 18:35 | 41.28738 | 5.95085 | 33966 ft | 409 kts | 226° |
| 2026-05-07 18:36 | 41.24902 | 5.89474 | 33964 ft | 410 kts | 225° |
| 2026-05-07 18:36 | 41.21059 | 5.83863 | 33962 ft | 411 kts | 225° |
| 2026-05-07 18:37 | 41.17204 | 5.78246 | 33960 ft | 412 kts | 225° |
| 2026-05-07 18:37 | 41.13334 | 5.72618 | 33962 ft | 413 kts | 225° |
| 2026-05-07 18:38 | 41.09461 | 5.66994 | 33960 ft | 413 kts | 225° |
| 2026-05-07 18:38 | 41.05612 | 5.61416 | 33958 ft | 413 kts | 225° |
| 2026-05-07 18:39 | 41.01726 | 5.55797 | 33957 ft | 413 kts | 225° |
| 2026-05-07 18:39 | 40.97838 | 5.50183 | 33954 ft | 414 kts | 225° |
| 2026-05-07 18:40 | 40.93943 | 5.44571 | 33962 ft | 414 kts | 225° |
| 2026-05-07 18:40 | 40.90042 | 5.38962 | 33956 ft | 414 kts | 225° |
| 2026-05-07 18:41 | 40.86143 | 5.33364 | 33950 ft | 414 kts | 225° |
| 2026-05-07 18:41 | 40.84188 | 5.30562 | 33718 ft | 411 kts | 226° |
| 2026-05-07 18:41 | 40.82294 | 5.27847 | 33634 ft | 394 kts | 225° |
| 2026-05-07 18:41 | 40.80454 | 5.25212 | 33198 ft | 388 kts | 225° |
| 2026-05-07 18:42 | 40.78624 | 5.22596 | 32571 ft | 387 kts | 226° |
| 2026-05-07 18:42 | 40.76796 | 5.19986 | 31952 ft | 387 kts | 226° |
| 2026-05-07 18:42 | 40.74974 | 5.17387 | 31400 ft | 385 kts | 226° |
| 2026-05-07 18:42 | 40.73162 | 5.14804 | 30897 ft | 383 kts | 226° |
| 2026-05-07 18:43 | 40.71358 | 5.12234 | 30390 ft | 380 kts | 226° |
| 2026-05-07 18:43 | 40.69562 | 5.09679 | 29862 ft | 379 kts | 226° |
| 2026-05-07 18:43 | 40.67778 | 5.07141 | 29280 ft | 377 kts | 225° |
| 2026-05-07 18:43 | 40.66003 | 5.04619 | 28694 ft | 375 kts | 225° |
| 2026-05-07 18:44 | 40.64233 | 5.02105 | 28118 ft | 373 kts | 225° |
| 2026-05-07 18:44 | 40.62474 | 4.99610 | 27572 ft | 371 kts | 225° |
| 2026-05-07 18:44 | 40.60721 | 4.97125 | 27039 ft | 369 kts | 225° |
| 2026-05-07 18:44 | 40.58982 | 4.94662 | 26506 ft | 368 kts | 225° |
| 2026-05-07 18:45 | 40.57240 | 4.92197 | 25985 ft | 366 kts | 225° |
| 2026-05-07 18:45 | 40.55508 | 4.89748 | 25484 ft | 365 kts | 225° |
| 2026-05-07 18:45 | 40.53783 | 4.87310 | 24977 ft | 364 kts | 225° |
| 2026-05-07 18:45 | 40.52063 | 4.84882 | 24482 ft | 363 kts | 225° |
| 2026-05-07 18:46 | 40.50347 | 4.82461 | 24100 ft | 360 kts | 225° |
| 2026-05-07 18:46 | 40.48623 | 4.80031 | 24019 ft | 364 kts | 225° |
| 2026-05-07 18:46 | 40.46911 | 4.77619 | 23788 ft | 358 kts | 226° |
| 2026-05-07 18:46 | 40.45219 | 4.75237 | 23360 ft | 356 kts | 226° |
| 2026-05-07 18:47 | 40.43535 | 4.72868 | 23019 ft | 351 kts | 226° |
| 2026-05-07 18:47 | 40.41889 | 4.70554 | 22756 ft | 345 kts | 226° |
| 2026-05-07 18:47 | 40.40238 | 4.68237 | 22113 ft | 350 kts | 226° |
| 2026-05-07 18:47 | 40.38614 | 4.65827 | 21392 ft | 356 kts | 231° |
| 2026-05-07 18:48 | 40.37130 | 4.63221 | 20826 ft | 357 kts | 233° |
| 2026-05-07 18:48 | 40.35680 | 4.60585 | 20384 ft | 355 kts | 233° |
| 2026-05-07 18:48 | 40.34250 | 4.57964 | 19953 ft | 353 kts | 233° |
| 2026-05-07 18:48 | 40.32844 | 4.55391 | 19519 ft | 351 kts | 233° |
| 2026-05-07 18:49 | 40.31423 | 4.52801 | 19080 ft | 350 kts | 233° |
| 2026-05-07 18:49 | 40.29999 | 4.50216 | 18636 ft | 349 kts | 233° |
| 2026-05-07 18:49 | 40.28578 | 4.47644 | 18215 ft | 348 kts | 232° |
| 2026-05-07 18:49 | 40.27161 | 4.45087 | 17728 ft | 346 kts | 232° |
| 2026-05-07 18:50 | 40.25748 | 4.42543 | 17285 ft | 344 kts | 232° |
| 2026-05-07 18:50 | 40.24325 | 4.39981 | 16828 ft | 343 kts | 232° |
| 2026-05-07 18:50 | 40.22925 | 4.37467 | 16399 ft | 341 kts | 232° |
| 2026-05-07 18:50 | 40.21532 | 4.34965 | 15957 ft | 339 kts | 232° |
| 2026-05-07 18:51 | 40.20163 | 4.32510 | 15543 ft | 338 kts | 232° |
| 2026-05-07 18:51 | 40.18762 | 4.30001 | 15115 ft | 337 kts | 232° |
| 2026-05-07 18:51 | 40.17404 | 4.27568 | 14704 ft | 335 kts | 232° |
| 2026-05-07 18:51 | 40.16027 | 4.25106 | 14271 ft | 335 kts | 232° |
| 2026-05-07 18:52 | 40.14654 | 4.22651 | 13854 ft | 334 kts | 232° |
| 2026-05-07 18:52 | 40.13284 | 4.20205 | 13417 ft | 333 kts | 231° |
| 2026-05-07 18:52 | 40.11920 | 4.17770 | 13003 ft | 331 kts | 232° |
| 2026-05-07 18:52 | 40.10564 | 4.15351 | 12596 ft | 329 kts | 232° |
| 2026-05-07 18:53 | 40.09216 | 4.12949 | 12191 ft | 327 kts | 232° |
| 2026-05-07 18:53 | 40.07876 | 4.10561 | 11822 ft | 324 kts | 232° |
| 2026-05-07 18:53 | 40.06569 | 4.08233 | 11752 ft | 312 kts | 232° |
| 2026-05-07 18:53 | 40.05308 | 4.05988 | 11619 ft | 303 kts | 232° |
| 2026-05-07 18:54 | 40.04070 | 4.03789 | 11339 ft | 300 kts | 232° |
| 2026-05-07 18:54 | 40.02838 | 4.01602 | 10992 ft | 299 kts | 232° |
| 2026-05-07 18:54 | 40.01604 | 3.99413 | 10645 ft | 299 kts | 231° |
| 2026-05-07 18:54 | 40.00373 | 3.97232 | 10318 ft | 298 kts | 231° |
| 2026-05-07 18:55 | 39.99142 | 3.95051 | 10014 ft | 298 kts | 232° |
| 2026-05-07 18:55 | 39.97922 | 3.92892 | 9961 ft | 295 kts | 232° |
| 2026-05-07 18:55 | 39.96702 | 3.90732 | 9951 ft | 296 kts | 232° |
| 2026-05-07 18:55 | 39.95478 | 3.88569 | 9946 ft | 297 kts | 232° |
| 2026-05-07 18:56 | 39.94251 | 3.86401 | 9947 ft | 297 kts | 232° |
| 2026-05-07 18:56 | 39.93025 | 3.84236 | 9942 ft | 298 kts | 231° |
| 2026-05-07 18:56 | 39.91794 | 3.82064 | 9941 ft | 298 kts | 231° |
| 2026-05-07 18:56 | 39.90561 | 3.79889 | 9932 ft | 298 kts | 231° |
| 2026-05-07 18:57 | 39.89331 | 3.77722 | 9940 ft | 297 kts | 232° |
| 2026-05-07 18:57 | 39.88101 | 3.75555 | 9934 ft | 297 kts | 232° |
| 2026-05-07 18:57 | 39.86874 | 3.73396 | 9931 ft | 297 kts | 231° |
| 2026-05-07 18:57 | 39.85649 | 3.71241 | 9942 ft | 296 kts | 231° |
| 2026-05-07 18:58 | 39.84421 | 3.69084 | 9944 ft | 297 kts | 231° |
| 2026-05-07 18:58 | 39.83189 | 3.66921 | 9936 ft | 297 kts | 231° |
| 2026-05-07 18:58 | 39.81960 | 3.64761 | 9943 ft | 297 kts | 232° |
| 2026-05-07 18:58 | 39.80727 | 3.62599 | 9939 ft | 298 kts | 232° |
| 2026-05-07 18:59 | 39.79494 | 3.60437 | 9933 ft | 298 kts | 231° |
| 2026-05-07 18:59 | 39.78262 | 3.58279 | 9942 ft | 297 kts | 231° |
| 2026-05-07 18:59 | 39.77019 | 3.56103 | 9951 ft | 307 kts | 232° |
| 2026-05-07 18:59 | 39.76159 | 3.54601 | 9963 ft | 316 kts | 231° |
| 2026-05-07 19:00 | 39.74859 | 3.52326 | 9946 ft | 309 kts | 232° |
| 2026-05-07 19:00 | 39.73601 | 3.50124 | 9928 ft | 297 kts | 231° |
| 2026-05-07 19:00 | 39.72006 | 3.47337 | 9703 ft | 288 kts | 231° |
| 2026-05-07 19:00 | 39.70814 | 3.45259 | 9450 ft | 286 kts | 231° |
| 2026-05-07 19:01 | 39.69643 | 3.43178 | 9196 ft | 285 kts | 233° |
| 2026-05-07 19:01 | 39.68969 | 3.41675 | 8995 ft | 285 kts | 240° |
| 2026-05-07 19:01 | 39.68094 | 3.39376 | 8752 ft | 284 kts | 243° |
| 2026-05-07 19:01 | 39.67253 | 3.37076 | 8492 ft | 281 kts | 242° |
| 2026-05-07 19:02 | 39.66411 | 3.34798 | 8225 ft | 279 kts | 242° |
| 2026-05-07 19:02 | 39.65565 | 3.32548 | 7978 ft | 276 kts | 242° |
| 2026-05-07 19:02 | 39.64715 | 3.30318 | 7722 ft | 276 kts | 242° |
| 2026-05-07 19:02 | 39.63858 | 3.28089 | 7465 ft | 276 kts | 241° |
| 2026-05-07 19:03 | 39.63000 | 3.25866 | 7238 ft | 275 kts | 242° |
| 2026-05-07 19:03 | 39.62143 | 3.23650 | 6987 ft | 274 kts | 242° |
| 2026-05-07 19:03 | 39.61283 | 3.21481 | 6887 ft | 266 kts | 241° |
| 2026-05-07 19:03 | 39.60445 | 3.19386 | 6803 ft | 258 kts | 240° |
| 2026-05-07 19:04 | 39.59631 | 3.17355 | 6691 ft | 250 kts | 240° |
| 2026-05-07 19:04 | 39.58842 | 3.15389 | 6615 ft | 242 kts | 241° |
| 2026-05-07 19:04 | 39.58088 | 3.13511 | 6424 ft | 239 kts | 240° |
| 2026-05-07 19:04 | 39.57324 | 3.11613 | 6191 ft | 237 kts | 241° |
| 2026-05-07 19:05 | 39.56560 | 3.09710 | 5915 ft | 237 kts | 241° |
| 2026-05-07 19:05 | 39.55797 | 3.07810 | 5657 ft | 237 kts | 241° |
| 2026-05-07 19:05 | 39.55035 | 3.05917 | 5397 ft | 237 kts | 241° |
| 2026-05-07 19:05 | 39.54279 | 3.04036 | 5200 ft | 233 kts | 241° |
| 2026-05-07 19:06 | 39.53530 | 3.02174 | 5029 ft | 232 kts | 241° |
| 2026-05-07 19:06 | 39.52033 | 2.98453 | 4997 ft | 233 kts | 241° |
| 2026-05-07 19:06 | 39.51291 | 2.96586 | 4997 ft | 233 kts | 242° |
| 2026-05-07 19:07 | 39.50547 | 2.94694 | 4917 ft | 239 kts | 242° |
| 2026-05-07 19:07 | 39.49792 | 2.92756 | 4770 ft | 241 kts | 242° |
| 2026-05-07 19:07 | 39.49048 | 2.90822 | 4599 ft | 238 kts | 242° |
| 2026-05-07 19:07 | 39.48319 | 2.88921 | 4429 ft | 233 kts | 242° |
| 2026-05-07 19:08 | 39.47598 | 2.87059 | 4266 ft | 230 kts | 242° |
| 2026-05-07 19:08 | 39.46884 | 2.85222 | 4115 ft | 228 kts | 242° |
| 2026-05-07 19:08 | 39.46165 | 2.83389 | 4025 ft | 227 kts | 242° |
| 2026-05-07 19:08 | 39.45448 | 2.81568 | 4010 ft | 226 kts | 242° |
| 2026-05-07 19:09 | 39.44735 | 2.79752 | 4001 ft | 228 kts | 242° |
| 2026-05-07 19:09 | 39.44020 | 2.77925 | 3997 ft | 228 kts | 242° |
| 2026-05-07 19:09 | 39.43307 | 2.76089 | 3991 ft | 227 kts | 242° |
| 2026-05-07 19:09 | 39.42615 | 2.74300 | 3978 ft | 217 kts | 241° |
| 2026-05-07 19:10 | 39.41971 | 2.72586 | 3965 ft | 208 kts | 242° |
| 2026-05-07 19:10 | 39.41520 | 2.71403 | 3979 ft | 204 kts | 243° |
| 2026-05-07 19:10 | 39.40886 | 2.69761 | 3987 ft | 204 kts | 242° |
| 2026-05-07 19:10 | 39.40241 | 2.68132 | 4002 ft | 203 kts | 241° |
| 2026-05-07 19:11 | 39.39592 | 2.66509 | 4012 ft | 204 kts | 242° |
| 2026-05-07 19:11 | 39.38936 | 2.64871 | 4020 ft | 206 kts | 242° |
| 2026-05-07 19:11 | 39.38280 | 2.63222 | 4026 ft | 207 kts | 242° |
| 2026-05-07 19:11 | 39.37620 | 2.61581 | 4019 ft | 204 kts | 242° |
| 2026-05-07 19:12 | 39.36970 | 2.59960 | 4008 ft | 202 kts | 241° |
| 2026-05-07 19:12 | 39.36333 | 2.58356 | 3993 ft | 200 kts | 241° |
| 2026-05-07 19:12 | 39.35708 | 2.56767 | 4006 ft | 197 kts | 242° |
| 2026-05-07 19:12 | 39.35079 | 2.55200 | 4029 ft | 196 kts | 241° |
| 2026-05-07 19:13 | 39.34444 | 2.53615 | 4028 ft | 202 kts | 242° |
| 2026-05-07 19:13 | 39.33790 | 2.51986 | 4012 ft | 205 kts | 242° |
| 2026-05-07 19:13 | 39.33153 | 2.50325 | 3994 ft | 208 kts | 251° |
| 2026-05-07 19:13 | 39.32962 | 2.48490 | 3918 ft | 208 kts | 268° |
| 2026-05-07 19:14 | 39.32874 | 2.46618 | 3785 ft | 209 kts | 268° |
| 2026-05-07 19:14 | 39.32772 | 2.44761 | 3601 ft | 205 kts | 266° |
| 2026-05-07 19:14 | 39.32679 | 2.42944 | 3443 ft | 201 kts | 267° |
| 2026-05-07 19:14 | 39.32592 | 2.41142 | 3239 ft | 199 kts | 267° |
| 2026-05-07 19:15 | 39.32503 | 2.39358 | 3079 ft | 200 kts | 267° |
| 2026-05-07 19:15 | 39.32475 | 2.37549 | 3023 ft | 202 kts | 278° |
| 2026-05-07 19:15 | 39.33002 | 2.35933 | 2987 ft | 193 kts | 317° |
| 2026-05-07 19:15 | 39.34111 | 2.35152 | 2999 ft | 183 kts | 357° |
| 2026-05-07 19:16 | 39.35335 | 2.35461 | 3018 ft | 179 kts | 29° |
| 2026-05-07 19:16 | 39.36448 | 2.36248 | 2991 ft | 185 kts | 31° |
| 2026-05-07 19:16 | 39.37568 | 2.37077 | 3014 ft | 187 kts | 31° |
| 2026-05-07 19:16 | 39.38689 | 2.37907 | 3015 ft | 184 kts | 32° |
| 2026-05-07 19:17 | 39.39662 | 2.38931 | 3016 ft | 181 kts | 59° |
| 2026-05-07 19:17 | 39.40257 | 2.40400 | 3034 ft | 190 kts | 58° |
| 2026-05-07 19:17 | 39.40962 | 2.41857 | 3051 ft | 190 kts | 59° |
| 2026-05-07 19:17 | 39.41659 | 2.43288 | 3046 ft | 187 kts | 58° |
| 2026-05-07 19:18 | 39.42327 | 2.44697 | 3033 ft | 185 kts | 59° |
| 2026-05-07 19:18 | 39.42996 | 2.46118 | 2956 ft | 186 kts | 59° |
| 2026-05-07 19:18 | 39.43672 | 2.47558 | 2866 ft | 189 kts | 59° |
| 2026-05-07 19:18 | 39.44354 | 2.49012 | 2758 ft | 189 kts | 59° |
| 2026-05-07 19:19 | 39.45034 | 2.50461 | 2600 ft | 187 kts | 60° |
| 2026-05-07 19:19 | 39.45699 | 2.51883 | 2510 ft | 181 kts | 59° |
| 2026-05-07 19:19 | 39.46340 | 2.53249 | 2379 ft | 172 kts | 59° |
| 2026-05-07 19:19 | 39.46945 | 2.54535 | 2272 ft | 165 kts | 60° |
| 2026-05-07 19:20 | 39.47531 | 2.55788 | 2156 ft | 159 kts | 59° |
| 2026-05-07 19:20 | 39.48090 | 2.56977 | 2088 ft | 151 kts | 59° |
| 2026-05-07 19:20 | 39.48637 | 2.58143 | 1980 ft | 153 kts | 59° |
| 2026-05-07 19:20 | 39.49187 | 2.59316 | 1899 ft | 153 kts | 58° |
| 2026-05-07 19:21 | 39.49745 | 2.60504 | 1770 ft | 152 kts | 59° |
| 2026-05-07 19:21 | 39.50279 | 2.61641 | 1714 ft | 146 kts | 59° |
| 2026-05-07 19:21 | 39.50794 | 2.62735 | 1519 ft | 140 kts | 59° |
| 2026-05-07 19:21 | 39.51292 | 2.63795 | 1352 ft | 137 kts | 60° |
| 2026-05-07 19:22 | 39.51799 | 2.64875 | 1192 ft | 143 kts | 60° |
| 2026-05-07 19:22 | 39.52327 | 2.65999 | 971 ft | 147 kts | 57° |
| 2026-05-07 19:22 | 39.52857 | 2.67125 | 768 ft | 146 kts | 58° |
| 2026-05-07 19:22 | 39.53387 | 2.68243 | 620 ft | 147 kts | 57° |
| 2026-05-07 19:23 | 39.53919 | 2.69369 | 411 ft | 145 kts | 57° |
| 2026-05-07 19:23 | 39.54442 | 2.70483 | 177 ft | 144 kts | 58° |
| 2026-05-07 19:23 | 39.54951 | 2.71563 | 43 ft | 134 kts | 59° |
| 2026-05-07 19:23 | 39.55364 | 2.72440 | 36 ft | 85 kts | 59° |
| 2026-05-07 19:24 | 39.55495 | 2.72844 | 37 ft | 37 kts | 88° |
| 2026-05-07 19:24 | 39.55497 | 2.72937 | 37 ft | 7 kts | 89° |
| 2026-05-07 19:24 | 39.55498 | 2.73012 | 37 ft | 10 kts | 89° |
| 2026-05-07 19:24 | 39.55499 | 2.73080 | 35 ft | 0 kts | 89° |
| 2026-05-07 19:26 | 39.55499 | 2.73082 | 35 ft | 1 kts | 89° |
| 2026-05-07 19:26 | 39.55500 | 2.73120 | 37 ft | 10 kts | 88° |
| 2026-05-07 19:26 | 39.55536 | 2.73249 | 36 ft | 17 kts | 58° |
| 2026-05-07 19:26 | 39.55597 | 2.73377 | 37 ft | 16 kts | 58° |
| 2026-05-07 19:27 | 39.55612 | 2.73503 | 36 ft | 15 kts | 132° |
| 2026-05-07 19:27 | 39.55524 | 2.73576 | 37 ft | 15 kts | 149° |
| 2026-05-07 19:27 | 39.55481 | 2.73547 | 37 ft | 9 kts | 257° |
| 2026-05-07 19:27 | 39.55450 | 2.73463 | 35 ft | 15 kts | 227° |
| 2026-05-07 19:28 | 39.55344 | 2.73505 | 37 ft | 20 kts | 149° |
| 2026-05-07 19:28 | 39.55221 | 2.73602 | 37 ft | 19 kts | 149° |
| 2026-05-07 19:28 | 39.55131 | 2.73596 | 37 ft | 14 kts | 243° |
| 2026-05-07 19:28 | 39.55084 | 2.73492 | 37 ft | 13 kts | 239° |
| 2026-05-07 19:29 | 39.55054 | 2.73429 | 37 ft | 4 kts | 238° |
| 2026-05-07 19:29 | 39.55034 | 2.73342 | 37 ft | 13 kts | 266° |
| 2026-05-07 19:29 | 39.55028 | 2.73281 | 37 ft | 3 kts | 229° |
| 2026-05-07 19:29 | 39.54997 | 2.73273 | 37 ft | 1 kts | 189° |
| 2026-05-07 19:30 | 39.54992 | 2.73272 | 37 ft | 1 kts | 187° |
| 2026-05-07 19:30 | 39.54991 | 2.73272 | 37 ft | 0 kts | 187° |